createdAt,value
2022-11-24T00:02:12.135Z,92.07
2022-11-24T00:04:40.115Z,93.95
2022-11-24T00:07:08.006Z,91.60
2022-11-24T00:09:37.380Z,88.78
2022-11-24T00:12:05.799Z,96.95
2022-11-24T00:14:33.885Z,90.60
2022-11-24T00:17:02.026Z,101.75
2022-11-24T00:19:29.971Z,93.13
2022-11-24T00:21:57.958Z,91.25
2022-11-24T00:24:25.854Z,93.15
2022-11-24T00:26:55.042Z,90.72
2022-11-24T00:29:23.095Z,95.10
2022-11-24T00:31:50.916Z,88.82
2022-11-24T00:34:18.890Z,97.72
2022-11-24T00:36:46.876Z,93.63
2022-11-24T00:39:17.298Z,89.65
2022-11-24T00:41:46.226Z,96.25
2022-11-24T00:44:15.631Z,88.32
2022-11-24T00:46:43.879Z,89.45
2022-11-24T00:49:11.921Z,87.78
2022-11-24T00:51:39.862Z,93.07
2022-11-24T00:54:07.912Z,89.93
2022-11-24T00:56:35.950Z,97.40
2022-11-24T00:59:04.272Z,87.82
2022-11-24T01:01:33.633Z,92.75
2022-11-24T01:04:02.606Z,94.55
2022-11-24T01:06:32.374Z,94.75
2022-11-24T01:09:00.656Z,101.00
2022-11-24T01:11:50.946Z,95.75
2022-11-24T01:14:19.438Z,95.97
2022-11-24T01:16:49.008Z,91.07
2022-11-24T01:19:17.019Z,91.35
2022-11-24T01:21:44.929Z,86.65
2022-11-24T01:24:13.326Z,106.72
2022-11-24T01:26:41.407Z,90.72
2022-11-24T01:29:11.879Z,79.88
2022-11-24T01:31:40.133Z,95.35
2022-11-24T01:34:09.730Z,92.57
2022-11-24T01:36:37.912Z,84.88
2022-11-24T01:39:05.963Z,86.68
2022-11-24T01:41:35.965Z,95.35
2022-11-24T01:44:22.476Z,95.88
2022-11-24T01:46:56.426Z,103.07
2022-11-24T01:49:28.900Z,104.40
2022-11-24T01:52:00.671Z,107.10
2022-11-24T01:54:32.623Z,85.32
2022-11-24T01:57:13.864Z,88.47
2022-11-24T01:59:42.552Z,95.43
2022-11-24T02:02:10.907Z,83.85
2022-11-24T02:04:41.404Z,88.60
2022-11-24T02:07:10.008Z,97.07
2022-11-24T02:09:44.482Z,86.57
2022-11-24T02:12:12.847Z,83.05
2022-11-24T02:14:43.139Z,87.65
2022-11-24T02:17:11.104Z,76.85
2022-11-24T02:19:49.816Z,82.75
2022-11-24T02:22:23.215Z,88.28
2022-11-24T02:24:56.422Z,90.32
2022-11-24T02:29:53.854Z,80.80
2022-11-24T02:32:21.758Z,74.60
2022-11-24T02:34:49.726Z,75.10
2022-11-24T02:37:17.696Z,75.60
2022-11-24T02:39:45.559Z,72.57
2022-11-24T02:42:14.721Z,91.13
2022-11-24T02:44:48.862Z,87.68
2022-11-24T02:47:16.938Z,85.28
2022-11-24T02:49:44.810Z,71.32
2022-11-24T02:52:12.786Z,87.30
2022-11-24T02:54:40.778Z,80.43
2022-11-24T02:57:09.079Z,89.65
2022-11-24T02:59:36.972Z,88.50
2022-11-24T03:02:06.366Z,105.07
2022-11-24T03:04:34.443Z,84.90
2022-11-24T03:07:02.742Z,94.40
2022-11-24T03:09:31.881Z,92.63
2022-11-24T03:11:59.831Z,85.80
2022-11-24T03:14:27.819Z,87.28
2022-11-24T03:16:55.860Z,100.35
2022-11-24T03:19:25.201Z,89.22
2022-11-24T03:21:53.123Z,74.07
2022-11-24T03:24:21.056Z,88.85
2022-11-24T03:26:49.067Z,86.95
2022-11-24T03:29:16.963Z,95.93
2022-11-24T03:31:44.947Z,81.35
2022-11-24T03:34:12.884Z,76.03
2022-11-24T03:36:42.212Z,81.10
2022-11-24T03:39:10.243Z,85.55
2022-11-24T03:41:38.092Z,82.90
2022-11-24T03:44:06.330Z,79.85
2022-11-24T03:46:34.455Z,80.57
2022-11-24T03:49:02.695Z,88.63
2022-11-24T03:51:30.619Z,78.72
2022-11-24T03:54:00.006Z,84.18
2022-11-24T03:56:27.939Z,78.57
2022-11-24T03:58:56.101Z,86.22
2022-11-24T04:01:24.073Z,77.00
2022-11-24T04:03:52.011Z,87.03
2022-11-24T04:06:20.066Z,81.97
2022-11-24T04:08:48.039Z,89.65
2022-11-24T04:11:31.251Z,74.90
2022-11-24T04:13:59.206Z,72.93
2022-11-24T04:16:27.296Z,75.55
2022-11-24T04:18:55.265Z,79.55
2022-11-24T04:21:23.163Z,77.40
2022-11-24T04:23:51.313Z,78.47
2022-11-24T04:26:20.690Z,98.32
2022-11-24T04:28:48.654Z,73.82
2022-11-24T04:31:16.902Z,84.60
2022-11-24T04:33:45.024Z,84.72
2022-11-24T04:36:12.928Z,87.70
2022-11-24T04:39:19.815Z,99.15
2022-11-24T04:41:30.163Z,89.88
2022-11-24T04:43:58.052Z,77.45
2022-11-24T04:46:26.133Z,92.60
2022-11-24T04:48:54.074Z,75.57
2022-11-24T04:51:22.090Z,80.70
2022-11-24T04:53:50.373Z,79.25
2022-11-24T04:56:18.339Z,79.57
2022-11-24T04:58:49.439Z,82.97
2022-11-24T05:01:17.419Z,76.13
2022-11-24T05:03:45.471Z,74.88
2022-11-24T05:06:13.453Z,71.70
2022-11-24T05:08:41.460Z,94.97
2022-11-24T05:11:09.399Z,73.43
2022-11-24T05:13:37.287Z,77.65
2022-11-24T05:16:06.849Z,81.20
2022-11-24T05:18:34.877Z,73.57
2022-11-24T05:21:03.020Z,75.70
2022-11-24T05:23:31.183Z,70.20
2022-11-24T05:26:01.094Z,60.45
2022-11-24T05:28:30.139Z,52.85
2022-11-24T05:31:00.611Z,54.45
2022-11-24T05:33:33.289Z,64.78
2022-11-24T05:36:03.159Z,56.42
2022-11-24T05:38:31.276Z,53.90
2022-11-24T05:41:01.778Z,55.58
2022-11-24T05:43:30.376Z,59.28
2022-11-24T05:46:00.312Z,58.58
2022-11-24T05:48:29.823Z,50.67
2022-11-24T05:50:59.627Z,52.97
2022-11-24T05:53:27.642Z,56.17
2022-11-24T05:55:55.624Z,53.78
2022-11-24T05:58:23.439Z,44.50
2022-11-24T06:00:51.372Z,72.80
2022-11-24T06:03:19.248Z,56.05
2022-11-24T06:05:48.829Z,55.47
2022-11-24T06:08:16.965Z,67.82
2022-11-24T06:10:44.823Z,59.45
2022-11-24T06:13:12.864Z,64.00
2022-11-24T06:15:41.454Z,66.38
2022-11-24T06:18:09.323Z,65.68
2022-11-24T06:20:37.220Z,67.47
2022-11-24T06:23:06.453Z,69.60
2022-11-24T06:25:34.792Z,61.50
2022-11-24T06:28:04.848Z,81.45
2022-11-24T06:30:32.791Z,66.55
2022-11-24T06:33:00.992Z,61.63
2022-11-24T06:35:28.940Z,62.65
2022-11-24T06:37:56.811Z,59.70
2022-11-24T06:40:26.147Z,65.50
2022-11-24T06:42:54.331Z,56.28
2022-11-24T06:45:23.425Z,57.58
2022-11-24T06:47:54.335Z,53.38
2022-11-24T06:50:22.444Z,66.60
2022-11-24T06:52:50.476Z,64.22
2022-11-24T06:55:18.462Z,59.97
2022-11-24T06:57:47.721Z,62.55
2022-11-24T07:00:16.431Z,53.95
2022-11-24T07:02:46.090Z,60.28
2022-11-24T07:05:14.378Z,53.65
2022-11-24T07:07:42.388Z,58.70
2022-11-24T07:10:10.717Z,53.53
2022-11-24T07:12:38.612Z,55.90
2022-11-24T07:15:09.526Z,56.97
2022-11-24T07:17:38.041Z,57.05
2022-11-24T07:20:07.558Z,54.90
2022-11-24T07:22:36.122Z,53.00
2022-11-24T07:25:07.291Z,54.75
2022-11-24T07:27:35.240Z,57.60
2022-11-24T07:30:03.433Z,49.83
2022-11-24T07:32:32.987Z,52.72
2022-11-24T07:35:01.009Z,53.70
2022-11-24T07:37:31.651Z,55.55
2022-11-24T07:39:59.870Z,50.95
2022-11-24T07:42:28.591Z,54.13
2022-11-24T07:44:56.573Z,54.10
2022-11-24T07:47:24.505Z,56.13
2022-11-24T07:49:53.914Z,56.65
2022-11-24T07:52:21.795Z,52.58
2022-11-24T07:54:49.772Z,52.97
2022-11-24T07:57:17.653Z,57.15
2022-11-24T07:59:45.698Z,53.50
2022-11-24T08:02:14.387Z,48.88
2022-11-24T08:04:42.465Z,49.17
2022-11-24T08:07:11.812Z,51.55
2022-11-24T08:09:39.884Z,54.47
2022-11-24T08:12:08.244Z,53.92
2022-11-24T08:14:36.437Z,53.22
2022-11-24T08:17:04.580Z,48.25
2022-11-24T08:19:32.748Z,52.10
2022-11-24T08:22:00.714Z,58.17
2022-11-24T08:24:31.446Z,55.63
2022-11-24T08:26:59.606Z,59.67
2022-11-24T08:29:29.640Z,60.10
2022-11-24T08:31:58.386Z,54.40
2022-11-24T08:34:27.041Z,59.83
2022-11-24T08:36:55.008Z,52.10
2022-11-24T08:39:23.062Z,52.13
2022-11-24T08:41:52.378Z,52.35
2022-11-24T08:44:20.312Z,54.25
2022-11-24T08:46:48.317Z,56.88
2022-11-24T08:49:16.185Z,54.40
2022-11-24T08:51:44.336Z,54.17
2022-11-24T08:54:13.454Z,53.42
2022-11-24T08:56:41.379Z,56.45
2022-11-24T08:59:13.248Z,58.03
2022-11-24T09:01:41.735Z,54.92
2022-11-24T09:04:09.790Z,59.67
2022-11-24T09:06:37.736Z,47.67
2022-11-24T09:09:05.567Z,55.35
2022-11-24T09:11:35.020Z,61.50
2022-11-24T09:14:03.105Z,52.95
2022-11-24T09:16:32.383Z,48.58
2022-11-24T09:19:02.039Z,51.95
2022-11-24T09:21:31.442Z,54.78
2022-11-24T09:23:59.282Z,51.90
2022-11-24T09:26:28.639Z,47.25
2022-11-24T09:28:58.082Z,54.55
2022-11-24T09:31:28.605Z,46.53
2022-11-24T09:33:58.212Z,51.15
2022-11-24T09:36:26.681Z,50.88
2022-11-24T09:38:54.729Z,53.67
2022-11-24T09:41:40.409Z,55.92
2022-11-24T09:44:28.221Z,48.33
2022-11-24T09:47:04.142Z,50.25
2022-11-24T09:49:39.672Z,50.47
2022-11-24T09:52:14.104Z,52.33
2022-11-24T09:54:50.203Z,51.58
2022-11-24T09:57:20.903Z,50.33
2022-11-24T09:59:48.806Z,55.33
2022-11-24T10:02:16.701Z,50.95
2022-11-24T10:04:48.101Z,46.63
2022-11-24T10:07:24.318Z,52.08
2022-11-24T10:10:04.570Z,47.40
2022-11-24T10:12:46.879Z,52.45
2022-11-24T10:15:25.554Z,51.80
2022-11-24T10:18:14.925Z,48.95
2022-11-24T10:20:56.097Z,50.08
2022-11-24T10:23:55.661Z,54.25
2022-11-24T10:26:31.927Z,54.90
2022-11-24T10:29:00.010Z,49.67
2022-11-24T10:31:35.279Z,44.95
2022-11-24T10:34:14.782Z,51.85
2022-11-24T10:36:50.544Z,46.40
2022-11-24T10:39:24.925Z,50.50
2022-11-24T10:41:55.975Z,51.75
2022-11-24T10:44:24.072Z,56.15
2022-11-24T10:46:52.429Z,52.30
2022-11-24T10:49:24.822Z,58.40
2022-11-24T10:52:05.920Z,52.63
2022-11-24T10:54:35.903Z,49.97
2022-11-24T10:57:04.095Z,46.80
2022-11-24T10:59:38.668Z,48.90
2022-11-24T11:02:32.369Z,51.33
2022-11-24T11:05:20.555Z,50.03
2022-11-24T11:07:50.003Z,45.38
2022-11-24T11:10:21.904Z,51.45
2022-11-24T11:12:51.056Z,47.13
2022-11-24T11:15:27.397Z,42.53
2022-11-24T11:17:59.509Z,39.58
2022-11-24T11:20:32.910Z,46.15
2022-11-24T11:23:15.039Z,52.72
2022-11-24T11:25:43.696Z,44.35
2022-11-24T11:28:27.825Z,48.30
2022-11-24T11:31:16.427Z,43.63
2022-11-24T11:34:06.174Z,44.78
2022-11-24T11:36:40.614Z,45.55
2022-11-24T11:39:21.536Z,54.07
2022-11-24T11:41:53.154Z,47.38
2022-11-24T11:44:33.664Z,47.25
2022-11-24T11:47:10.271Z,47.95
2022-11-24T11:49:40.301Z,48.85
2022-11-24T11:52:35.713Z,51.65
2022-11-24T11:55:25.915Z,48.50
2022-11-24T11:58:07.944Z,46.45
2022-11-24T12:00:40.528Z,43.65
2022-11-24T12:03:29.591Z,44.90
2022-11-24T12:06:08.405Z,49.83
2022-11-24T12:09:17.804Z,46.17
2022-11-24T12:11:40.391Z,45.53
2022-11-24T12:14:18.481Z,48.45
2022-11-24T12:16:54.431Z,44.95
2022-11-24T12:19:41.051Z,43.90
2022-11-24T12:22:20.270Z,43.10
2022-11-24T12:24:56.802Z,43.28
2022-11-24T12:27:39.057Z,43.13
2022-11-24T12:30:12.505Z,45.20
2022-11-24T12:33:05.730Z,45.03
2022-11-24T12:35:38.321Z,42.92
2022-11-24T12:38:26.075Z,43.35
2022-11-24T12:41:39.651Z,43.35
2022-11-24T12:44:01.785Z,44.90
2022-11-24T12:46:39.766Z,38.33
2022-11-24T12:49:18.836Z,38.72
2022-11-24T12:51:53.578Z,39.17
2022-11-24T12:54:22.871Z,38.38
2022-11-24T12:56:57.058Z,40.28
2022-11-24T12:59:35.767Z,37.90
2022-11-24T13:02:17.935Z,37.38
2022-11-24T13:04:52.814Z,38.47
2022-11-24T13:07:28.214Z,41.20
2022-11-24T13:13:19.604Z,44.35
2022-11-24T13:19:10.638Z,45.85
2022-11-24T13:22:01.091Z,45.85
2022-11-24T13:24:31.859Z,41.75
2022-11-24T13:27:37.119Z,45.88
2022-11-24T13:30:52.437Z,37.13
2022-11-24T13:33:39.881Z,40.22
2022-11-24T13:36:32.777Z,38.50
2022-11-24T13:39:02.533Z,40.27
2022-11-24T13:42:10.397Z,42.45
2022-11-24T13:44:59.535Z,46.05
2022-11-24T13:47:36.257Z,46.30
2022-11-24T13:50:13.916Z,48.58
2022-11-24T13:52:46.358Z,44.47
2022-11-24T13:55:28.018Z,30.00
2022-11-24T13:58:00.170Z,46.85
2022-11-24T14:00:30.761Z,41.92
2022-11-24T14:03:02.100Z,39.72
2022-11-24T14:05:37.862Z,39.08
2022-11-24T14:08:08.227Z,36.78
2022-11-24T14:10:38.351Z,44.80
2022-11-24T14:13:26.489Z,40.10
2022-11-24T14:16:05.168Z,40.33
2022-11-24T14:18:34.111Z,40.25
2022-11-24T14:21:23.338Z,44.90
2022-11-24T14:23:53.737Z,43.00
2022-11-24T14:26:23.584Z,41.20
2022-11-24T14:28:52.434Z,40.95
2022-11-24T14:31:24.002Z,41.53
2022-11-24T14:34:07.797Z,43.00
2022-11-24T14:36:37.095Z,43.70
2022-11-24T14:39:06.044Z,41.60
2022-11-24T14:41:35.028Z,46.53
2022-11-24T14:44:18.000Z,42.03
2022-11-24T14:46:46.129Z,42.42
2022-11-24T14:49:19.896Z,35.35
2022-11-24T14:51:55.860Z,38.38
2022-11-24T14:54:24.658Z,42.47
2022-11-24T14:57:01.959Z,41.75
2022-11-24T14:59:31.436Z,44.63
2022-11-24T15:02:00.632Z,43.40
2022-11-24T15:05:02.304Z,39.22
2022-11-24T15:07:26.647Z,43.15
2022-11-24T15:09:58.048Z,40.53
2022-11-24T15:12:30.583Z,42.03
2022-11-24T15:15:02.336Z,45.10
2022-11-24T15:17:31.050Z,39.03
2022-11-24T15:20:03.114Z,40.67
2022-11-24T15:22:41.316Z,45.80
2022-11-24T15:25:36.451Z,39.35
2022-11-24T15:28:04.565Z,44.60
2022-11-24T15:30:36.012Z,43.22
2022-11-24T15:33:04.513Z,43.78
2022-11-24T15:35:33.642Z,42.30
2022-11-24T15:38:02.923Z,36.95
2022-11-24T15:40:31.636Z,46.22
2022-11-24T15:43:03.461Z,45.20
2022-11-24T15:45:35.373Z,43.83
2022-11-24T15:48:03.289Z,52.72
2022-11-24T15:50:31.315Z,41.85
2022-11-24T15:52:59.374Z,43.85
2022-11-24T15:55:28.688Z,43.15
2022-11-24T15:57:56.533Z,44.55
2022-11-24T16:00:25.005Z,41.35
2022-11-24T16:02:52.919Z,39.75
2022-11-24T16:05:20.760Z,43.75
2022-11-24T16:07:48.706Z,43.58
2022-11-24T16:10:25.616Z,45.53
2022-11-24T16:12:54.942Z,49.53
2022-11-24T16:15:22.862Z,47.10
2022-11-24T16:17:50.867Z,49.38
2022-11-24T16:20:18.862Z,47.05
2022-11-24T16:22:47.279Z,50.08
2022-11-24T16:25:15.387Z,45.33
2022-11-24T16:27:43.380Z,51.67
2022-11-24T16:30:14.377Z,50.22
2022-11-24T16:32:42.583Z,45.97
2022-11-24T16:35:10.728Z,51.10
2022-11-24T16:37:38.758Z,52.95
2022-11-24T16:40:07.862Z,51.50
2022-11-24T16:42:35.814Z,46.13
2022-11-24T16:45:03.782Z,49.80
2022-11-24T16:47:33.036Z,53.13
2022-11-24T16:50:00.941Z,52.88
2022-11-24T16:52:28.844Z,56.30
2022-11-24T16:54:56.677Z,50.40
2022-11-24T16:57:24.545Z,51.67
2022-11-24T16:59:52.391Z,51.85
2022-11-24T17:02:20.477Z,55.63
2022-11-24T17:04:52.269Z,49.30
2022-11-24T17:07:20.972Z,54.40
2022-11-24T17:09:49.465Z,51.60
2022-11-24T17:12:17.403Z,49.55
2022-11-24T17:15:03.110Z,54.70
2022-11-24T17:17:33.311Z,50.53
2022-11-24T17:20:02.561Z,58.25
2022-11-24T17:22:30.694Z,54.63
2022-11-24T17:24:58.548Z,53.92
2022-11-24T17:27:26.551Z,57.28
2022-11-24T17:29:54.573Z,50.75
2022-11-24T17:32:22.451Z,53.70
2022-11-24T17:34:50.345Z,51.90
2022-11-24T17:37:19.585Z,50.45
2022-11-24T17:40:12.557Z,57.50
2022-11-24T17:42:36.893Z,55.25
2022-11-24T17:45:05.480Z,53.17
2022-11-24T17:47:33.346Z,57.05
2022-11-24T17:50:01.205Z,53.33
2022-11-24T17:52:31.825Z,57.35
2022-11-24T17:54:59.997Z,55.33
2022-11-24T17:57:27.996Z,49.38
2022-11-24T17:59:55.903Z,51.95
2022-11-24T18:02:23.815Z,54.53
2022-11-24T18:04:51.770Z,59.17
2022-11-24T18:07:19.682Z,49.05
2022-11-24T18:09:49.027Z,54.33
2022-11-24T18:12:16.887Z,54.63
2022-11-24T18:14:44.760Z,59.50
2022-11-24T18:17:12.643Z,51.50
2022-11-24T18:19:40.537Z,53.08
2022-11-24T18:22:08.352Z,49.83
2022-11-24T18:24:36.498Z,50.08
2022-11-24T18:27:06.138Z,55.10
2022-11-24T18:29:34.019Z,56.20
2022-11-24T18:32:02.270Z,51.50
2022-11-24T18:34:30.335Z,55.50
2022-11-24T18:36:58.203Z,53.08
2022-11-24T18:39:26.556Z,56.30
2022-11-24T18:41:54.434Z,50.47
2022-11-24T18:44:23.754Z,54.10
2022-11-24T18:46:51.682Z,48.50
2022-11-24T18:49:19.491Z,47.25
2022-11-24T18:51:47.274Z,53.25
2022-11-24T18:54:15.107Z,52.03
2022-11-24T18:56:42.968Z,56.05
2022-11-24T18:59:10.802Z,51.85
2022-11-24T19:01:40.073Z,49.88
2022-11-24T19:04:07.992Z,48.47
2022-11-24T19:06:38.665Z,45.58
2022-11-24T19:09:08.225Z,53.15
2022-11-24T19:11:38.931Z,60.45
2022-11-24T19:14:09.852Z,53.08
2022-11-24T19:16:38.056Z,54.38
2022-11-24T19:19:07.803Z,56.03
2022-11-24T19:21:38.186Z,54.47
2022-11-24T19:24:07.693Z,53.55
2022-11-24T19:26:35.855Z,48.85
2022-11-24T19:29:04.574Z,53.47
2022-11-24T19:31:33.085Z,55.30
2022-11-24T19:34:02.888Z,54.33
2022-11-24T19:36:32.644Z,52.67
2022-11-24T19:39:00.922Z,51.90
2022-11-24T19:41:31.112Z,51.63
2022-11-24T19:44:00.020Z,51.65
2022-11-24T19:46:29.793Z,49.40
2022-11-24T19:49:00.588Z,48.40
2022-11-24T19:51:31.288Z,52.33
2022-11-24T19:54:01.407Z,46.92
2022-11-24T19:56:31.456Z,43.40
2022-11-24T19:58:59.471Z,41.97
2022-11-24T20:01:29.650Z,52.20
2022-11-24T20:03:59.303Z,42.40
2022-11-24T20:06:28.185Z,41.50
2022-11-24T20:08:57.932Z,45.33
2022-11-24T20:11:29.577Z,47.50
2022-11-24T20:13:58.321Z,48.03
2022-11-24T20:16:28.269Z,46.55
2022-11-24T20:18:57.709Z,51.22
2022-11-24T20:21:28.585Z,44.90
2022-11-24T20:23:58.680Z,48.65
2022-11-24T20:26:29.708Z,46.63
2022-11-24T20:28:59.445Z,53.80
2022-11-24T20:31:29.272Z,47.42
2022-11-24T20:33:57.591Z,47.50
2022-11-24T20:36:27.927Z,55.05
2022-11-24T20:38:56.181Z,47.42
2022-11-24T20:41:26.468Z,47.60
2022-11-24T20:43:57.359Z,48.78
2022-11-24T20:46:27.102Z,47.10
2022-11-24T20:48:55.587Z,53.35
2022-11-24T20:51:25.577Z,46.80
2022-11-24T20:53:54.887Z,57.10
2022-11-24T20:56:24.383Z,48.28
2022-11-24T20:58:52.891Z,48.80
2022-11-24T21:01:24.595Z,47.83
2022-11-24T21:03:55.408Z,48.80
2022-11-24T21:06:23.810Z,50.05
2022-11-24T21:08:52.346Z,50.75
2022-11-24T21:11:21.154Z,54.28
2022-11-24T21:13:50.166Z,54.35
2022-11-24T21:16:19.908Z,49.92
2022-11-24T21:18:51.166Z,55.85
2022-11-24T21:21:20.408Z,51.15
2022-11-24T21:23:48.954Z,54.83
2022-11-24T21:26:18.302Z,52.78
2022-11-24T21:28:48.245Z,54.35
2022-11-24T21:31:18.292Z,55.60
2022-11-24T21:33:47.595Z,54.08
2022-11-24T21:36:18.866Z,61.00
2022-11-24T21:38:51.619Z,56.80
2022-11-24T21:41:20.124Z,49.45
2022-11-24T21:43:48.386Z,53.97
2022-11-24T21:46:16.499Z,54.65
2022-11-24T21:48:44.544Z,52.38
2022-11-24T21:51:15.527Z,51.20
2022-11-24T21:53:46.526Z,46.72
2022-11-24T21:56:19.655Z,50.55
2022-11-24T21:58:49.017Z,54.33
2022-11-24T22:01:19.555Z,50.85
2022-11-24T22:03:47.757Z,53.45
2022-11-24T22:06:17.757Z,48.40
2022-11-24T22:08:47.734Z,52.28
2022-11-24T22:11:17.546Z,47.47
2022-11-24T22:13:45.971Z,43.13
2022-11-24T22:16:15.148Z,40.80
2022-11-24T22:18:44.342Z,45.22
2022-11-24T22:21:13.841Z,42.40
2022-11-24T22:23:41.680Z,43.97
2022-11-24T22:26:14.253Z,40.92
2022-11-24T22:28:42.931Z,36.90
2022-11-24T22:31:12.377Z,37.83
2022-11-24T22:33:40.312Z,44.80
2022-11-24T22:36:09.176Z,40.33
2022-11-24T22:38:37.169Z,43.67
2022-11-24T22:41:07.003Z,39.50
2022-11-24T22:43:38.472Z,37.20
2022-11-24T22:46:07.354Z,37.03
2022-11-24T22:48:35.631Z,41.83
2022-11-24T22:51:04.883Z,35.20
2022-11-24T22:53:32.757Z,40.50
2022-11-24T22:56:05.047Z,49.22
2022-11-24T22:58:33.584Z,30.77
2022-11-24T23:01:07.213Z,40.67
2022-11-24T23:03:35.865Z,45.60
2022-11-24T23:06:04.932Z,42.38
2022-11-24T23:08:34.768Z,42.83
2022-11-24T23:11:04.414Z,41.58
2022-11-24T23:13:32.467Z,40.47
2022-11-24T23:16:04.132Z,37.80
2022-11-24T23:18:33.710Z,40.45
2022-11-24T23:21:06.934Z,44.10
2022-11-24T23:26:03.374Z,43.22
2022-11-24T23:28:31.760Z,43.60
2022-11-24T23:31:03.916Z,47.80
2022-11-24T23:33:33.634Z,55.10
2022-11-24T23:36:03.131Z,41.53
2022-11-24T23:38:32.788Z,46.10
2022-11-24T23:41:01.738Z,44.25
2022-11-24T23:43:29.631Z,42.28
2022-11-24T23:46:03.222Z,50.33
2022-11-24T23:48:31.212Z,45.97
2022-11-24T23:51:04.761Z,38.05
2022-11-24T23:53:32.804Z,41.65
2022-11-24T23:56:00.909Z,38.83
2022-11-24T23:58:29.142Z,36.17
